Time;durP1;ratioP1;P1;durP2;ratioP2;P2;SDS_P1;SDS_P2;PMS_P1;PMS_P2;Temp;Humidity;BMP_temperature;BMP_pressure;BME280_temperature;BME280_humidity;BME280_pressure;Samples;Min_cycle;Max_cycle;Signal;HPM_P1;HPM_P2
2023/09/08 00:02:28;;;;;;;12.15;7.85;;;;;;;16.94;96.84;101749.84;6248699;22;20443;-76
2023/09/08 00:04:55;;;;;;;12.25;8.55;;;;;;;16.91;97.33;101754.19;6221888;22;20024;-76
2023/09/08 00:07:22;;;;;;;10.40;8.07;;;;;;;16.90;97.04;101754.66;6248566;22;20017;-76
2023/09/08 00:09:49;;;;;;;11.43;8.20;;;;;;;16.87;97.06;101750.19;6249154;22;20478;-76
2023/09/08 00:12:15;;;;;;;9.02;8.13;;;;;;;16.84;97.19;101746.47;6248589;22;20017;-76
2023/09/08 00:14:42;;;;;;;10.85;8.27;;;;;;;16.83;97.00;101746.94;6248140;22;20016;-76
2023/09/08 00:17:09;;;;;;;12.45;9.35;;;;;;;16.82;97.99;101737.38;6248567;22;20076;-75
2023/09/08 00:19:36;;;;;;;11.15;8.27;;;;;;;16.78;97.37;101742.94;6248699;22;20104;-76
2023/09/08 00:22:05;;;;;;;10.85;9.35;;;;;;;16.75;97.81;101743.84;6249120;22;20017;-76
2023/09/08 00:24:33;;;;;;;9.77;8.88;;;;;;;16.74;97.70;101744.31;6249489;22;20017;-76
2023/09/08 00:26:59;;;;;;;9.18;8.35;;;;;;;16.71;97.52;101750.59;6249906;22;20080;-76
2023/09/08 00:29:26;;;;;;;9.25;8.32;;;;;;;16.68;98.01;101752.25;6222747;22;20017;-76
2023/09/08 00:31:53;;;;;;;9.60;8.70;;;;;;;16.64;97.29;101751.69;6250422;22;20171;-76
2023/09/08 00:34:19;;;;;;;9.30;8.50;;;;;;;16.60;96.98;101751.81;6222463;22;20031;-75
2023/09/08 00:36:46;;;;;;;9.55;8.75;;;;;;;16.57;97.60;101757.38;6223289;22;20016;-75
2023/09/08 00:39:13;;;;;;;10.05;8.52;;;;;;;16.56;96.91;101750.50;6249421;22;20093;-76
2023/09/08 00:41:39;;;;;;;9.00;8.18;;;;;;;16.54;97.12;101752.91;6249411;22;20020;-76
2023/09/08 00:44:08;;;;;;;9.45;8.45;;;;;;;16.51;97.78;101743.06;6249909;22;20391;-76
2023/09/08 00:46:35;;;;;;;9.23;8.43;;;;;;;16.48;97.91;101747.41;6222305;22;20079;-76
2023/09/08 00:49:02;;;;;;;9.35;8.48;;;;;;;16.45;97.78;101750.25;6250149;22;20017;-75
2023/09/08 00:51:29;;;;;;;9.18;8.38;;;;;;;16.44;97.86;101751.44;6249526;22;20061;-75
2023/09/08 00:53:55;;;;;;;8.93;8.15;;;;;;;16.39;97.56;101754.78;6250467;22;20451;-76
2023/09/08 00:56:23;;;;;;;10.23;8.32;;;;;;;16.34;96.67;101745.41;6221972;22;20044;-75
2023/09/08 00:58:50;;;;;;;9.38;8.20;;;;;;;16.32;97.28;101745.84;6198057;22;20434;-75
2023/09/08 01:01:17;;;;;;;9.00;8.15;;;;;;;16.30;97.71;101745.56;6222474;22;20079;-75
2023/09/08 01:03:44;;;;;;;9.02;8.13;;;;;;;16.30;98.09;101744.81;6250313;22;20013;-75
2023/09/08 01:06:11;;;;;;;11.75;8.52;;;;;;;16.27;96.84;101738.41;6249711;22;20096;-75
2023/09/08 01:08:39;;;;;;;9.25;7.90;;;;;;;16.24;97.91;101739.31;6249785;22;20051;-75
2023/09/08 01:11:06;;;;;;;10.30;8.40;;;;;;;16.22;98.35;101739.03;6222441;22;20548;-75
2023/09/08 01:13:33;;;;;;;9.25;8.45;;;;;;;16.20;98.42;101732.63;6250000;22;20023;-75
2023/09/08 01:16:01;;;;;;;9.57;8.52;;;;;;;16.19;98.53;101734.56;6223025;22;20092;-76
2023/09/08 01:18:28;;;;;;;8.32;7.68;;;;;;;16.14;98.44;101737.84;6222163;22;20025;-75
2023/09/08 01:21:17;;;;;;;11.00;8.30;;;;;;;16.14;98.75;101740.53;6223085;22;20473;-75
2023/09/08 01:24:12;;;;;;;9.82;8.27;;;;;;;16.13;98.69;101741.72;6250291;22;20091;-75
2023/09/08 01:26:41;;;;;;;8.30;7.47;;;;;;;16.09;99.14;101743.09;6222246;22;20398;-75
2023/09/08 01:29:10;;;;;;;7.93;7.25;;;;;;;16.06;98.70;101739.38;6222393;22;20100;-76
2023/09/08 01:31:38;;;;;;;8.00;7.30;;;;;;;16.03;99.28;101748.34;6249873;22;20087;-75
2023/09/08 01:34:06;;;;;;;8.50;7.78;;;;;;;15.99;98.32;101734.34;6222937;22;20370;-76
2023/09/08 01:36:34;;;;;;;8.20;7.50;;;;;;;15.97;98.50;101742.84;6249061;22;20067;-76
2023/09/08 01:39:02;;;;;;;8.30;7.60;;;;;;;15.95;98.83;101739.13;6249940;22;20450;-75
2023/09/08 01:41:30;;;;;;;8.60;7.70;;;;;;;15.91;98.20;101736.59;6248080;22;20469;-75
2023/09/08 01:43:57;;;;;;;8.75;7.80;;;;;;;15.89;98.42;101740.94;6222659;22;20021;-75
2023/09/08 01:46:24;;;;;;;8.07;7.47;;;;;;;15.86;98.79;101739.16;6249087;22;20012;-75
2023/09/08 01:48:50;;;;;;;7.63;7.03;;;;;;;15.86;98.38;101744.50;6197824;22;20480;-75
2023/09/08 01:51:17;;;;;;;8.55;7.82;;;;;;;15.81;98.90;101739.75;6222681;22;20017;-76
2023/09/08 01:53:44;;;;;;;8.02;7.28;;;;;;;15.81;99.55;101734.38;6197865;22;20016;-76
2023/09/08 01:56:10;;;;;;;8.52;7.82;;;;;;;15.78;99.01;101740.66;6249027;22;20079;-75
2023/09/08 01:58:37;;;;;;;11.27;8.80;;;;;;;15.70;99.00;101734.09;6222370;22;20553;-75
2023/09/08 02:01:05;;;;;;;9.13;8.27;;;;;;;15.69;100.00;101733.34;6222687;22;20021;-75
2023/09/08 02:03:34;;;;;;;8.68;7.97;;;;;;;15.71;100.00;101732.91;6222105;22;20017;-75
2023/09/08 02:06:00;;;;;;;9.00;8.15;;;;;;;15.67;99.68;101738.44;6249835;22;20013;-75
2023/09/08 02:08:27;;;;;;;8.57;7.78;;;;;;;15.63;100.00;101738.59;6221431;22;20434;-75
2023/09/08 02:10:54;;;;;;;8.45;7.75;;;;;;;15.63;100.00;101743.94;6197728;22;20016;-75
2023/09/08 02:13:21;;;;;;;10.93;7.47;;;;;;;15.61;99.95;101740.22;6221941;22;20027;-75
2023/09/08 02:15:48;;;;;;;8.48;7.75;;;;;;;15.58;99.82;101735.78;6249759;22;20044;-74
2023/09/08 02:18:15;;;;;;;7.53;6.93;;;;;;;15.55;99.75;101733.97;6249187;22;20044;-75
2023/09/08 02:20:41;;;;;;;7.53;6.93;;;;;;;15.54;100.00;101735.16;6222400;22;20026;-75
2023/09/08 02:23:08;;;;;;;7.13;6.43;;;;;;;15.53;100.00;101737.09;6248819;22;20047;-75
2023/09/08 02:25:35;;;;;;;7.82;6.93;;;;;;;15.51;100.00;101728.75;6222059;22;20021;-75
2023/09/08 02:28:01;;;;;;;8.15;6.60;;;;;;;15.49;99.29;101727.72;6222443;22;20344;-75
2023/09/08 02:30:28;;;;;;;7.50;6.90;;;;;;;15.46;99.31;101728.59;6249061;22;20032;-75
2023/09/08 02:32:55;;;;;;;7.50;7.00;;;;;;;15.42;99.49;101734.13;6249644;22;20024;-75
2023/09/08 02:35:25;;;;;;;8.70;6.72;;;;;;;15.43;100.00;101730.25;6196764;22;20075;-74
2023/09/08 02:37:54;;;;;;;9.73;6.63;;;;;;;15.40;99.82;101725.78;6221453;22;20425;-75
2023/09/08 02:40:21;;;;;;;7.38;6.72;;;;;;;15.40;100.00;101733.06;6221382;22;20473;-75
2023/09/08 02:42:49;;;;;;;8.25;7.55;;;;;;;15.36;100.00;101730.53;6222363;22;20021;-75
2023/09/08 02:45:15;;;;;;;8.18;7.38;;;;;;;15.35;100.00;101721.75;6249228;22;20012;-75
2023/09/08 02:47:42;;;;;;;8.32;7.35;;;;;;;15.32;100.00;101729.94;6221992;22;20447;-75
2023/09/08 02:50:12;;;;;;;8.13;7.50;;;;;;;15.28;99.77;101724.00;6248896;22;20013;-75
2023/09/08 02:52:38;;;;;;;8.52;7.50;;;;;;;15.28;100.00;101729.34;6221371;22;20471;-75
2023/09/08 02:55:06;;;;;;;8.65;7.75;;;;;;;15.27;100.00;101733.97;6222202;22;20020;-74
2023/09/08 02:57:33;;;;;;;9.70;7.57;;;;;;;15.22;100.00;101729.19;6221786;22;20071;-75
2023/09/08 02:59:59;;;;;;;8.20;7.43;;;;;;;15.21;100.00;101733.06;6249447;22;20019;-75
2023/09/08 03:02:27;;;;;;;8.40;7.60;;;;;;;15.20;100.00;101731.59;6221388;22;20052;-74
2023/09/08 03:04:54;;;;;;;9.98;7.72;;;;;;;15.20;100.00;101736.19;6221856;22;20024;-75
2023/09/08 03:07:21;;;;;;;8.95;8.00;;;;;;;15.16;100.00;101732.94;6221113;22;20021;-74
2023/09/08 03:09:48;;;;;;;8.63;7.82;;;;;;;15.12;100.00;101738.47;6222214;22;20020;-75
2023/09/08 03:12:14;;;;;;;8.98;8.10;;;;;;;15.12;100.00;101737.72;6221919;22;20041;-75
2023/09/08 03:14:41;;;;;;;9.65;8.63;;;;;;;15.10;100.00;101735.47;6221887;22;20024;-75
2023/09/08 03:17:08;;;;;;;8.90;8.05;;;;;;;15.08;99.64;101737.13;6221814;22;20031;-75
2023/09/08 03:19:34;;;;;;;8.27;7.57;;;;;;;15.03;99.73;101735.78;6221487;22;20027;-75
2023/09/08 03:22:01;;;;;;;8.07;7.47;;;;;;;15.04;100.00;101734.56;6221317;22;20021;-75
2023/09/08 03:24:28;;;;;;;8.20;7.50;;;;;;;14.99;100.00;101724.44;6220990;22;20429;-74
2023/09/08 03:26:55;;;;;;;8.85;8.05;;;;;;;14.99;100.00;101729.81;6249510;22;20093;-75
2023/09/08 03:29:21;;;;;;;9.55;8.50;;;;;;;14.97;100.00;101730.25;6248798;22;20442;-75
2023/09/08 03:31:48;;;;;;;10.60;8.93;;;;;;;14.95;100.00;101721.91;6249233;22;20286;-74
2023/09/08 03:34:15;;;;;;;10.32;8.77;;;;;;;14.96;100.00;101719.97;6221331;22;20052;-74
2023/09/08 03:36:43;;;;;;;10.25;9.25;;;;;;;14.95;100.00;101719.22;6221307;22;20395;-75
2023/09/08 03:39:10;;;;;;;11.00;10.00;;;;;;;14.93;100.00;101718.19;6221499;22;20090;-74
2023/09/08 03:41:38;;;;;;;12.20;10.30;;;;;;;14.88;100.00;101721.44;6221414;22;20482;-74
2023/09/08 03:44:04;;;;;;;11.52;10.43;;;;;;;14.87;100.00;101719.94;6248716;22;20012;-76
2023/09/08 03:46:31;;;;;;;11.70;10.30;;;;;;;14.86;100.00;101713.84;6221054;22;20457;-75
2023/09/08 03:49:00;;;;;;;12.48;10.07;;;;;;;14.85;100.00;101714.28;6221729;22;20021;-75
2023/09/08 03:51:28;;;;;;;13.63;10.50;;;;;;;14.85;100.00;101717.72;6195771;22;20017;-75
2023/09/08 03:53:55;;;;;;;10.80;9.80;;;;;;;14.83;100.00;101709.38;6221396;22;20025;-75
2023/09/08 03:56:21;;;;;;;11.80;10.60;;;;;;;14.83;100.00;101709.38;6248419;22;20028;-75
2023/09/08 03:58:49;;;;;;;13.10;10.60;;;;;;;14.80;100.00;101707.56;6196865;22;20020;-74
2023/09/08 04:01:15;;;;;;;11.13;9.85;;;;;;;14.78;100.00;101704.63;6249892;22;20078;-74
2023/09/08 04:03:43;;;;;;;13.60;10.77;;;;;;;14.77;100.00;101708.50;6222584;22;20071;-74
2023/09/08 04:06:11;;;;;;;12.05;10.85;;;;;;;14.75;100.00;101702.84;6221811;22;20443;-75
2023/09/08 04:08:37;;;;;;;11.32;10.25;;;;;;;14.72;100.00;101702.97;6222510;22;20358;-75
2023/09/08 04:11:05;;;;;;;12.80;11.00;;;;;;;14.70;100.00;101705.34;6222971;22;20071;-75
2023/09/08 04:13:31;;;;;;;10.77;9.82;;;;;;;14.68;100.00;101705.78;6249934;22;20017;-75
2023/09/08 04:15:59;;;;;;;11.80;10.82;;;;;;;14.65;100.00;101704.75;6223023;22;20079;-76
2023/09/08 04:18:25;;;;;;;14.88;11.05;;;;;;;14.61;100.00;101708.75;6222204;22;20043;-75
2023/09/08 04:20:52;;;;;;;11.55;10.45;;;;;;;14.61;100.00;101701.47;6222285;22;20020;-75
2023/09/08 04:23:19;;;;;;;13.70;10.48;;;;;;;14.62;100.00;101704.88;6222213;22;20079;-75
2023/09/08 04:25:46;;;;;;;15.18;11.05;;;;;;;14.61;100.00;101709.50;6222975;22;20398;-75
2023/09/08 04:28:12;;;;;;;11.50;10.40;;;;;;;14.60;100.00;101708.00;6222539;22;20017;-75
2023/09/08 04:30:39;;;;;;;12.48;10.60;;;;;;;14.53;100.00;101700.25;6249758;22;20013;-75
2023/09/08 04:33:06;;;;;;;11.30;10.10;;;;;;;14.53;100.00;101708.28;6222708;22;20095;-75
2023/09/08 04:35:33;;;;;;;12.85;10.55;;;;;;;14.51;100.00;101705.31;6249102;22;20016;-75
2023/09/08 04:38:00;;;;;;;11.52;10.45;;;;;;;14.53;100.00;101715.56;6222583;22;20743;-76
2023/09/08 04:40:30;;;;;;;11.52;10.43;;;;;;;14.52;100.00;101706.03;6221996;22;20100;-75
2023/09/08 04:42:56;;;;;;;11.70;10.57;;;;;;;14.47;100.00;101699.34;6222743;22;20356;-75
2023/09/08 04:45:23;;;;;;;11.80;10.40;;;;;;;14.44;100.00;101708.25;6221974;22;20020;-76
2023/09/08 04:47:50;;;;;;;11.57;10.38;;;;;;;14.39;100.00;101706.16;6222789;22;20020;-75
2023/09/08 04:50:18;;;;;;;11.60;10.48;;;;;;;14.38;100.00;101704.66;6222227;22;20028;-76
2023/09/08 04:52:45;;;;;;;10.38;9.48;;;;;;;14.40;100.00;101710.28;6250309;22;20402;-75
2023/09/08 04:55:12;;;;;;;11.15;9.95;;;;;;;14.41;100.00;101708.38;6222206;22;20021;-75
2023/09/08 04:57:38;;;;;;;11.43;10.25;;;;;;;14.41;100.00;101706.47;6222388;22;20023;-75
2023/09/08 05:00:06;;;;;;;11.40;10.23;;;;;;;14.41;100.00;101700.31;6249826;22;20083;-75
2023/09/08 05:02:33;;;;;;;11.05;9.98;;;;;;;14.43;100.00;101708.69;6248675;22;20017;-75
2023/09/08 05:05:01;;;;;;;14.45;9.90;;;;;;;14.41;100.00;101711.81;6222176;22;20103;-75
2023/09/08 05:07:28;;;;;;;12.15;10.88;;;;;;;14.39;100.00;101711.50;6221710;22;20054;-75
2023/09/08 05:09:55;;;;;;;11.00;10.00;;;;;;;14.39;100.00;101700.06;6222079;22;20027;-75
2023/09/08 05:12:26;;;;;;;11.25;10.07;;;;;;;14.38;100.00;101710.00;6197909;22;20099;-76
2023/09/08 05:14:56;;;;;;;12.10;10.32;;;;;;;14.34;100.00;101702.13;6222472;22;20043;-75
2023/09/08 05:17:24;;;;;;;12.18;9.98;;;;;;;14.37;100.00;101702.41;6221157;22;20074;-75
2023/09/08 05:19:50;;;;;;;12.48;10.38;;;;;;;14.38;100.00;101707.34;6249763;22;20013;-75
2023/09/08 05:22:17;;;;;;;11.45;10.40;;;;;;;14.39;100.00;101710.75;6249187;22;20428;-76
2023/09/08 05:24:44;;;;;;;14.02;11.50;;;;;;;14.39;100.00;101711.50;6222359;22;20020;-76
2023/09/08 05:27:11;;;;;;;12.13;10.93;;;;;;;14.40;100.00;101710.28;6221760;22;20498;-75
2023/09/08 05:29:38;;;;;;;13.30;11.75;;;;;;;14.41;100.00;101713.72;6222174;22;20017;-76
2023/09/08 05:32:05;;;;;;;12.63;11.13;;;;;;;14.41;100.00;101713.72;6221886;22;20017;-77
2023/09/08 05:34:32;;;;;;;11.27;10.25;;;;;;;14.43;100.00;101719.41;6221616;22;20032;-75
2023/09/08 05:37:00;;;;;;;11.77;10.45;;;;;;;14.48;100.00;101718.84;6197809;22;20048;-75
2023/09/08 05:39:26;;;;;;;12.23;10.52;;;;;;;14.53;100.00;101716.31;6221692;22;20364;-75
2023/09/08 05:41:53;;;;;;;11.20;10.10;;;;;;;14.59;100.00;101719.16;6249685;22;20076;-75
2023/09/08 05:44:20;;;;;;;10.55;9.55;;;;;;;14.64;100.00;101727.38;6221696;22;20024;-74
2023/09/08 05:46:47;;;;;;;17.13;11.25;;;;;;;14.69;100.00;101728.72;6221818;22;20016;-75
2023/09/08 05:49:15;;;;;;;14.13;11.55;;;;;;;14.73;100.00;101718.59;6221865;22;20017;-76
2023/09/08 05:51:42;;;;;;;12.55;9.55;;;;;;;14.80;100.00;101728.28;6222108;22;20052;-75
2023/09/08 05:54:08;;;;;;;12.38;10.68;;;;;;;14.86;100.00;101724.56;6222365;22;20132;-75
2023/09/08 05:56:36;;;;;;;12.13;10.75;;;;;;;14.91;100.00;101729.34;6222212;22;20105;-75
2023/09/08 05:59:03;;;;;;;11.05;10.00;;;;;;;15.17;100.00;101743.22;6249881;22;20016;-75
2023/09/08 06:01:31;;;;;;;11.32;10.23;;;;;;;16.88;98.66;101740.91;6221080;22;20056;-75
2023/09/08 06:03:59;;;;;;;11.68;10.48;;;;;;;18.98;85.49;101739.34;6222431;22;20059;-75
2023/09/08 06:06:28;;;;;;;13.27;9.95;;;;;;;20.49;76.71;101732.50;6197409;22;20522;-76
2023/09/08 06:08:55;;;;;;;11.93;10.38;;;;;;;21.46;70.69;101745.84;6222571;22;20021;-77
2023/09/08 06:11:22;;;;;;;13.55;10.07;;;;;;;22.06;67.54;101747.06;6221886;22;20028;-75
2023/09/08 06:13:48;;;;;;;12.70;11.43;;;;;;;22.43;65.58;101749.44;6249706;22;20017;-75
2023/09/08 06:16:15;;;;;;;15.48;10.30;;;;;;;22.68;64.17;101744.19;6248711;22;20017;-74
2023/09/08 06:18:43;;;;;;;15.88;10.68;;;;;;;22.84;64.18;101748.81;6222110;22;20178;-74
2023/09/08 06:21:13;;;;;;;;;;;;;;;23.08;65.54;101748.97;6222092;22;20016;-74
2023/09/08 06:23:40;;;;;;;11.63;10.43;;;;;;;22.75;63.94;101744.41;6222475;22;19923;-74
2023/09/08 06:26:07;;;;;;;11.55;10.55;;;;;;;22.52;64.91;101751.16;6222230;22;20020;-74
2023/09/08 06:28:36;;;;;;;13.43;10.50;;;;;;;22.43;65.65;101746.00;6197883;22;20023;-74
2023/09/08 06:31:04;;;;;;;11.23;10.10;;;;;;;22.22;66.78;101743.59;6222174;22;20021;-74
2023/09/08 06:33:32;;;;;;;16.83;11.02;;;;;;;21.88;68.46;101745.59;6221921;22;20099;-74
2023/09/08 06:35:58;;;;;;;12.50;10.40;;;;;;;21.56;69.84;101744.38;6249371;22;20013;-74
2023/09/08 06:38:25;;;;;;;12.65;11.10;;;;;;;21.12;72.36;101745.03;6221459;22;20491;-74
2023/09/08 06:40:53;;;;;;;14.07;11.45;;;;;;;20.81;74.85;101745.91;6222187;22;20032;-74
2023/09/08 06:43:20;;;;;;;13.20;11.70;;;;;;;20.56;76.61;101745.56;6221330;22;20028;-74
2023/09/08 06:46:02;;;;;;;14.93;12.73;;;;;;;20.40;77.95;101745.47;6222250;22;20489;-75
2023/09/08 06:48:29;;;;;;;14.10;12.80;;;;;;;20.36;78.90;101744.97;6221846;22;20027;-75
2023/09/08 06:50:56;;;;;;;14.73;12.20;;;;;;;20.33;79.80;101748.63;6221590;22;20020;-74
2023/09/08 06:53:25;;;;;;;15.40;12.40;;;;;;;20.30;80.32;101751.06;6221843;22;20025;-73
2023/09/08 06:55:53;;;;;;;17.20;12.27;;;;;;;20.31;81.10;101755.25;6197611;22;20027;-74
2023/09/08 06:58:22;;;;;;;13.52;12.13;;;;;;;20.31;81.19;101757.97;6196890;22;20067;-74
2023/09/08 07:00:50;;;;;;;16.70;13.32;;;;;;;20.30;81.73;101753.03;6222215;22;20017;-74
2023/09/08 07:03:17;;;;;;;13.35;11.90;;;;;;;20.34;82.19;101755.50;6221838;22;20024;-74
2023/09/08 07:05:44;;;;;;;17.55;11.85;;;;;;;20.31;82.57;101759.91;6222237;22;20016;-74
2023/09/08 07:08:11;;;;;;;16.25;13.13;;;;;;;20.37;82.05;101757.25;6221828;22;20452;-74
2023/09/08 07:10:38;;;;;;;15.30;12.27;;;;;;;20.39;82.26;101760.97;6221703;22;20020;-75
2023/09/08 07:13:04;;;;;;;18.45;12.85;;;;;;;20.46;83.62;101770.59;6221438;22;20024;-74
2023/09/08 07:15:32;;;;;;;15.43;12.77;;;;;;;20.57;82.78;101762.53;6221675;22;20013;-74
2023/09/08 07:17:59;;;;;;;15.23;12.48;;;;;;;20.69;82.37;101758.66;6221854;22;20013;-74
2023/09/08 07:20:25;;;;;;;15.27;12.57;;;;;;;20.76;81.21;101749.34;6220995;22;20051;-75
2023/09/08 07:22:52;;;;;;;14.32;12.82;;;;;;;20.81;79.65;101754.75;6221758;22;20091;-75
2023/09/08 07:25:21;;;;;;;18.00;12.20;;;;;;;20.87;79.50;101760.94;6221328;22;20460;-74
2023/09/08 07:27:48;;;;;;;14.30;12.82;;;;;;;21.00;80.34;101757.06;6221796;22;20458;-76
2023/09/08 07:30:14;;;;;;;15.07;12.13;;;;;;;21.17;80.22;101765.97;6221833;22;20092;-73
2023/09/08 07:32:41;;;;;;;14.15;11.25;;;;;;;21.32;79.33;101765.75;6221870;22;20021;-75
2023/09/08 07:35:14;;;;;;;12.70;11.57;;;;;;;21.43;77.98;101765.78;6222582;22;20012;-74
2023/09/08 07:37:43;;;;;;;13.68;12.27;;;;;;;21.56;78.20;101772.22;6198923;22;20020;-74
2023/09/08 07:40:10;;;;;;;12.43;10.80;;;;;;;21.69;78.13;101768.25;6222806;22;20084;-74
2023/09/08 07:42:37;;;;;;;13.45;12.02;;;;;;;21.84;78.01;101768.78;6249053;22;20472;-74
2023/09/08 07:45:04;;;;;;;15.85;11.00;;;;;;;21.94;77.69;101770.00;6223234;22;20108;-74
2023/09/08 07:47:31;;;;;;;13.00;11.80;;;;;;;22.02;77.23;101776.41;6222957;22;20020;-75
2023/09/08 07:50:36;;;;;;;13.77;11.63;;;;;;;22.12;75.27;101769.50;6250095;22;20012;-75
2023/09/08 07:53:03;;;;;;;15.23;10.90;;;;;;;22.18;75.04;101772.94;6097356;23;20050;-75
2023/09/08 07:55:30;;;;;;;12.80;11.68;;;;;;;22.29;74.01;101774.91;6094466;23;20126;-75
2023/09/08 07:57:57;;;;;;;18.42;11.27;;;;;;;22.43;74.18;101771.16;6094434;23;20067;-75
2023/09/08 08:00:24;;;;;;;12.25;10.70;;;;;;;22.55;73.72;101763.72;6094485;23;20523;-75
2023/09/08 08:02:54;;;;;;;13.75;11.48;;;;;;;22.65;72.45;101767.66;6094935;23;20462;-75
2023/09/08 08:05:21;;;;;;;13.32;10.23;;;;;;;22.78;73.05;101765.16;6094516;23;20046;-75
2023/09/08 08:07:48;;;;;;;11.70;10.57;;;;;;;22.97;73.47;101768.03;6096070;23;20018;-76
2023/09/08 08:10:15;;;;;;;10.57;9.63;;;;;;;23.13;73.37;101769.91;6097167;23;20019;-75
2023/09/08 08:12:42;;;;;;;11.80;10.60;;;;;;;23.21;72.15;101765.41;6097329;23;20023;-75
2023/09/08 08:15:10;;;;;;;12.18;10.90;;;;;;;23.36;71.88;101761.63;6072993;23;20433;-76
2023/09/08 08:17:37;;;;;;;10.88;9.73;;;;;;;23.50;71.78;101761.28;6097470;23;20025;-76
2023/09/08 08:20:09;;;;;;;15.18;10.45;;;;;;;23.60;69.40;101767.88;6073467;23;20034;-76
2023/09/08 08:22:37;;;;;;;11.55;10.55;;;;;;;23.67;69.86;101765.84;6097260;23;20027;-76
2023/09/08 08:25:04;;;;;;;10.93;9.93;;;;;;;23.78;70.78;101763.06;6246434;22;20028;-74
2023/09/08 08:27:31;;;;;;;10.55;9.55;;;;;;;23.93;69.12;101766.88;6249030;22;20020;-74
2023/09/08 08:30:00;;;;;;;11.45;9.90;;;;;;;24.07;69.45;101756.09;6250182;22;20422;-75
2023/09/08 08:32:28;;;;;;;10.88;9.77;;;;;;;24.13;67.13;101749.38;6222821;22;20510;-75
2023/09/08 08:34:56;;;;;;;10.45;9.45;;;;;;;24.19;67.12;101746.59;6250501;22;20012;-74
2023/09/08 08:37:23;;;;;;;13.68;10.18;;;;;;;24.37;66.45;101751.38;6249110;22;20071;-74
2023/09/08 08:39:50;;;;;;;13.80;9.57;;;;;;;24.47;67.17;101752.47;6222638;22;20087;-75
2023/09/08 08:42:17;;;;;;;9.93;8.35;;;;;;;24.62;67.26;101754.78;6249719;22;20031;-77
2023/09/08 08:44:45;;;;;;;9.93;8.75;;;;;;;24.69;64.98;101758.91;6249948;22;20092;-75
2023/09/08 08:47:14;;;;;;;10.90;9.55;;;;;;;24.74;65.29;101753.41;6249705;22;20439;-76
2023/09/08 08:49:46;;;;;;;10.32;9.13;;;;;;;24.82;64.94;101753.53;6249546;22;20013;-75
2023/09/08 08:52:14;;;;;;;9.02;8.32;;;;;;;25.02;67.15;101755.03;6249217;22;20013;-74
2023/09/08 08:54:42;;;;;;;9.25;8.48;;;;;;;25.12;65.19;101756.13;6248831;22;20664;-73
2023/09/08 08:57:11;;;;;;;12.70;8.50;;;;;;;25.31;65.71;101758.81;6249731;22;20068;-73
2023/09/08 08:59:37;;;;;;;9.82;8.85;;;;;;;25.46;64.17;101759.09;6222287;22;20016;-75
2023/09/08 09:02:05;;;;;;;9.35;8.43;;;;;;;25.51;62.85;101761.00;6250041;22;20028;-74
2023/09/08 09:04:32;;;;;;;10.75;8.13;;;;;;;25.57;63.61;101761.66;6249563;22;20405;-74
2023/09/08 09:06:59;;;;;;;9.88;8.02;;;;;;;25.72;62.90;101753.00;6249992;22;20040;-75
2023/09/08 09:09:26;;;;;;;17.02;8.88;;;;;;;25.77;62.27;101754.88;6248738;22;20075;-74
2023/09/08 09:11:53;;;;;;;8.80;7.88;;;;;;;25.86;62.49;101757.94;6249657;22;20025;-74
2023/09/08 09:14:20;;;;;;;9.40;8.60;;;;;;;25.98;62.74;101755.78;6249492;22;20013;-73
2023/09/08 09:16:47;;;;;;;8.57;7.88;;;;;;;26.13;64.50;101761.44;6222986;22;20482;-73
2023/09/08 09:19:27;;;;;;;14.35;8.20;;;;;;;26.23;61.57;101762.47;6249578;22;20019;-77
2023/09/08 09:21:55;;;;;;;8.35;7.65;;;;;;;26.33;61.75;101764.81;6249858;22;20118;-78
2023/09/08 09:24:45;;;;;;;9.45;8.13;;;;;;;26.53;62.58;101761.44;6247039;22;20409;-78
2023/09/08 09:27:12;;;;;;;8.73;7.90;;;;;;;26.69;62.14;101754.91;6247991;22;20012;-75
2023/09/08 09:29:50;;;;;;;10.25;7.78;;;;;;;26.84;61.22;101760.50;6247911;22;20436;-74
2023/09/08 09:32:22;;;;;;;9.63;6.82;;;;;;;27.00;60.96;101760.72;6248013;22;20016;-75
2023/09/08 09:34:53;;;;;;;10.82;7.75;;;;;;;27.16;59.11;101754.88;6248536;22;20063;-75
2023/09/08 09:37:20;;;;;;;7.65;6.85;;;;;;;27.22;58.93;101769.13;6247814;22;20016;-75
2023/09/08 09:39:51;;;;;;;14.23;7.53;;;;;;;27.29;57.77;101754.06;6249034;22;20672;-76
2023/09/08 09:42:18;;;;;;;;;;;;;;;27.44;59.68;101756.94;6249869;22;20021;-79
2023/09/08 09:44:47;;;;;;;8.30;7.28;;;;;;;27.46;58.74;101756.41;6250146;22;19941;-76
2023/09/08 09:47:14;;;;;;;11.88;7.57;;;;;;;27.53;58.26;101756.47;6249466;22;20023;-76
2023/09/08 09:49:48;;;;;;;8.50;7.70;;;;;;;27.70;58.61;101760.81;6222376;22;20055;-79
2023/09/08 09:52:24;;;;;;;8.95;7.95;;;;;;;27.76;57.73;101761.41;6250058;22;20473;-83
2023/09/08 09:54:54;;;;;;;9.70;7.95;;;;;;;27.80;57.66;101759.06;6250766;22;20020;-85
2023/09/08 09:57:22;;;;;;;8.02;7.30;;;;;;;27.97;58.37;101766.84;6249440;22;20033;-85
2023/09/08 09:59:50;;;;;;;7.45;6.85;;;;;;;28.01;57.36;101762.47;6250740;22;20494;-83
2023/09/08 10:02:21;;;;;;;10.73;7.43;;;;;;;28.14;57.51;101759.66;6222192;22;20541;-82
2023/09/08 10:04:50;;;;;;;9.45;8.50;;;;;;;28.25;56.68;101753.16;6250622;22;20017;-84
2023/09/08 10:07:17;;;;;;;9.32;7.65;;;;;;;28.32;56.72;101752.47;6249124;22;20019;-83
2023/09/08 10:09:45;;;;;;;9.05;7.20;;;;;;;28.49;56.26;101757.47;6250396;22;20060;-82
2023/09/08 10:12:17;;;;;;;10.48;7.47;;;;;;;28.56;56.66;101751.28;6249878;22;20451;-79
2023/09/08 10:14:48;;;;;;;8.60;7.63;;;;;;;28.65;56.71;101755.53;6249961;22;20347;-78
2023/09/08 10:17:22;;;;;;;8.85;7.35;;;;;;;28.75;56.20;101742.78;6249542;22;20080;-78
2023/09/08 10:19:51;;;;;;;8.13;7.38;;;;;;;28.74;54.44;101750.25;6249962;22;20443;-80
2023/09/08 10:22:26;;;;;;;11.65;7.35;;;;;;;28.80;55.48;101750.81;6248417;22;20493;-82
2023/09/08 10:24:55;;;;;;;10.30;7.38;;;;;;;28.89;54.97;101749.56;6250075;22;20099;-80
2023/09/08 10:27:23;;;;;;;8.07;7.50;;;;;;;28.86;56.31;101742.44;6248873;22;20091;-78
2023/09/08 10:29:52;;;;;;;9.18;8.32;;;;;;;28.84;54.86;101739.50;6249838;22;20059;-77
2023/09/08 10:32:20;;;;;;;8.43;7.60;;;;;;;28.87;56.60;101744.63;6248942;22;20074;-78
2023/09/08 10:34:49;;;;;;;9.55;7.10;;;;;;;29.02;56.31;101748.69;6249434;22;20132;-77
2023/09/08 10:37:29;;;;;;;8.95;8.13;;;;;;;29.07;55.64;101747.78;6248752;22;20016;-75
2023/09/08 10:40:24;;;;;;;8.80;7.30;;;;;;;29.15;57.54;101741.06;6224595;22;20012;-77
2023/09/08 10:43:07;;;;;;;8.60;7.15;;;;;;;29.15;55.99;101737.56;6249771;22;20362;-77
2023/09/08 10:45:34;;;;;;;9.45;7.68;;;;;;;29.13;56.22;101740.13;6249209;22;20043;-76
2023/09/08 10:48:01;;;;;;;8.18;7.40;;;;;;;29.06;55.43;101732.63;6249811;22;20083;-77
2023/09/08 10:50:33;;;;;;;7.60;7.00;;;;;;;29.17;54.96;101735.03;6248339;22;20017;-76
2023/09/08 10:53:14;;;;;;;8.20;7.55;;;;;;;29.16;55.22;101728.06;6249600;22;20020;-77
2023/09/08 10:55:53;;;;;;;8.23;7.43;;;;;;;29.20;55.08;101731.16;6222805;22;20021;-76
2023/09/08 10:58:35;;;;;;;10.10;8.35;;;;;;;29.18;55.46;101729.00;6249009;22;20461;-77
2023/09/08 11:01:04;;;;;;;16.97;8.87;;;;;;;29.16;55.44;101736.28;6222968;22;20013;-76
2023/09/08 11:03:37;;;;;;;8.23;7.35;;;;;;;29.16;56.17;101739.03;6248892;22;20044;-76
2023/09/08 11:06:06;;;;;;;9.30;8.48;;;;;;;29.06;54.82;101727.88;6249207;22;20829;-77
2023/09/08 11:08:35;;;;;;;11.10;7.93;;;;;;;29.06;56.58;101730.63;6249183;22;20075;-83
2023/09/08 11:11:02;;;;;;;10.35;7.30;;;;;;;29.15;56.73;101735.56;6249667;22;20040;-78
2023/09/08 11:13:29;;;;;;;13.38;7.18;;;;;;;29.16;55.03;101737.03;6248551;22;20027;-77
2023/09/08 11:15:56;;;;;;;7.80;7.15;;;;;;;29.13;55.47;101731.91;6249601;22;20023;-78
2023/09/08 11:18:30;;;;;;;12.65;7.68;;;;;;;29.06;54.56;101733.34;6248044;22;20013;-78
2023/09/08 11:20:58;;;;;;;8.52;7.45;;;;;;;29.04;54.86;101735.19;6246245;22;20163;-78